Osterville, Massachusetts
Current Conditions -  °F | °C
As of 5:56 PM on Thursday 27 Nov 2014 (Local Time) from KHYA Reporting Station
Light Rain Light Rain  
Wind Chill: 38°   Ceiling: 2400
Heat Index: 38°   Visibility: 10mi
Dew Point: 34°   Wind: 0mph
Humidity: 86%   Direction: NA
Pressure: 29.96"   Gusts: NA
Location:  41.63°N, 70.39°W
Report Text: KHYA 272256Z 00000KT 10SM -RA BKN024 BKN029 OVC038 03/01 A2996 RMK AO2 RAB08 SLP145 P0000 T00330011
Loading
Personal Weather Stations






























Interactive Weather Map New forecast layout! Learn more

10-Day Weather Forecast

Advertisements
Track Severe Weather on mobile